createdAt,value
2023-12-07T04:23:36.235Z,0.80
2023-12-07T04:26:38.852Z,0.98
2023-12-07T04:29:41.041Z,0.80
2023-12-07T04:32:43.622Z,1.35
2023-12-07T04:35:45.860Z,0.80
2023-12-07T04:38:48.309Z,1.25
2023-12-07T04:41:50.525Z,0.88
2023-12-07T04:44:52.969Z,1.30
2023-12-07T04:47:55.242Z,0.68
2023-12-07T04:50:57.722Z,0.85
2023-12-07T04:54:09.395Z,0.35
2023-12-07T04:57:18.776Z,0.60
2023-12-07T05:00:21.465Z,1.33
2023-12-07T05:03:24.032Z,0.60
2023-12-07T05:06:26.272Z,0.30
2023-12-07T05:09:32.038Z,0.73
2023-12-07T05:12:34.405Z,0.95
2023-12-07T05:15:36.828Z,0.55
2023-12-07T05:18:39.091Z,0.50
2023-12-07T05:21:41.990Z,0.95
2023-12-07T05:24:44.253Z,1.23
2023-12-07T05:27:46.811Z,0.40
2023-12-07T05:30:49.153Z,1.02
2023-12-07T05:33:51.768Z,0.62
2023-12-07T05:36:53.971Z,1.00
2023-12-07T05:39:56.926Z,1.17
2023-12-07T05:42:59.170Z,1.17
2023-12-07T05:46:01.676Z,0.85
2023-12-07T05:49:04.266Z,0.32
2023-12-07T05:52:06.934Z,1.02
2023-12-07T05:55:09.693Z,0.55
2023-12-07T05:58:12.813Z,0.32
2023-12-07T06:01:18.695Z,2.47
2023-12-07T06:04:21.254Z,1.12
2023-12-07T06:07:23.480Z,0.28
2023-12-07T06:10:26.396Z,0.95
2023-12-07T06:13:28.647Z,0.90
2023-12-07T06:16:31.183Z,0.70
2023-12-07T06:19:33.388Z,1.27
2023-12-07T06:22:36.012Z,0.50
2023-12-07T06:25:38.252Z,0.93
2023-12-07T06:28:41.241Z,1.15
2023-12-07T06:31:46.643Z,0.95
2023-12-07T06:34:49.294Z,0.80
2023-12-07T06:37:51.545Z,0.55
2023-12-07T06:40:54.027Z,1.10
2023-12-07T06:43:57.206Z,0.90
2023-12-07T06:47:04.243Z,1.15
2023-12-07T06:50:11.134Z,0.82
2023-12-07T06:53:15.565Z,1.17
2023-12-07T06:56:17.838Z,0.62
2023-12-07T06:59:21.156Z,0.50
2023-12-07T07:02:24.275Z,0.70
2023-12-07T07:05:26.827Z,1.45
2023-12-07T07:08:29.850Z,0.50
2023-12-07T07:11:35.207Z,0.85
2023-12-07T07:14:37.683Z,1.12
2023-12-07T07:17:40.556Z,0.98
2023-12-07T07:20:42.995Z,1.10
2023-12-07T07:23:45.703Z,0.65
2023-12-07T07:26:48.060Z,0.95
2023-12-07T07:29:50.562Z,1.12
2023-12-07T07:32:53.168Z,1.17
2023-12-07T07:35:57.182Z,1.27
2023-12-07T07:39:00.876Z,0.73
2023-12-07T07:42:03.555Z,1.48
2023-12-07T07:45:06.996Z,0.68
2023-12-07T07:48:09.557Z,0.82
2023-12-07T07:51:11.863Z,0.88
2023-12-07T07:54:14.283Z,1.50
2023-12-07T07:57:16.458Z,1.75
2023-12-07T08:00:20.314Z,2.20
2023-12-07T08:03:22.816Z,1.50
2023-12-07T08:06:25.001Z,0.52
2023-12-07T08:09:27.572Z,1.95
2023-12-07T08:12:29.830Z,0.90
2023-12-07T08:15:33.323Z,0.88
2023-12-07T08:18:35.721Z,1.48
2023-12-07T08:21:40.105Z,1.00
2023-12-07T08:24:42.396Z,1.65
2023-12-07T08:27:47.112Z,0.77
2023-12-07T08:30:49.922Z,1.23
2023-12-07T08:33:52.773Z,0.90
2023-12-07T08:36:55.085Z,0.75
2023-12-07T08:39:57.702Z,0.40
2023-12-07T08:42:59.967Z,1.02
2023-12-07T08:46:02.449Z,1.48
2023-12-07T08:49:04.788Z,0.70
2023-12-07T08:52:22.087Z,1.52
2023-12-07T08:55:30.891Z,1.17
2023-12-07T08:58:34.455Z,1.17
2023-12-07T09:01:36.775Z,0.75
2023-12-07T09:04:40.577Z,0.77
2023-12-07T09:07:43.321Z,1.48
2023-12-07T09:10:47.290Z,0.90
2023-12-07T09:13:49.786Z,1.42
2023-12-07T09:16:52.307Z,1.12
2023-12-07T09:19:55.142Z,1.40
2023-12-07T09:22:58.559Z,1.58
2023-12-07T09:26:00.803Z,0.70
2023-12-07T09:29:03.813Z,0.90
2023-12-07T09:32:08.050Z,1.30
2023-12-07T09:35:21.194Z,1.00
2023-12-07T09:38:23.830Z,0.60
2023-12-07T09:41:28.365Z,0.88
2023-12-07T09:44:30.816Z,1.02
2023-12-07T09:47:38.142Z,1.02
2023-12-07T09:50:42.425Z,1.37
2023-12-07T09:53:46.445Z,0.80
2023-12-07T09:56:48.913Z,0.73
2023-12-07T09:59:51.592Z,1.27
2023-12-07T10:02:55.548Z,1.23
2023-12-07T10:06:01.215Z,1.35
2023-12-07T10:09:12.705Z,1.48
2023-12-07T10:12:17.537Z,1.20
2023-12-07T10:15:21.826Z,0.90
2023-12-07T10:18:24.865Z,2.35
2023-12-07T10:21:34.328Z,1.37
2023-12-07T10:24:36.859Z,1.10
2023-12-07T10:27:43.893Z,1.23
2023-12-07T10:30:46.687Z,1.85
2023-12-07T10:33:50.375Z,3.25
2023-12-07T10:36:54.322Z,1.27
2023-12-07T10:39:56.649Z,0.90
2023-12-07T10:42:59.784Z,1.30
2023-12-07T10:46:02.847Z,0.82
2023-12-07T10:49:11.080Z,1.42
2023-12-07T10:52:24.991Z,1.85
2023-12-07T10:55:30.873Z,0.88
2023-12-07T10:58:36.899Z,1.42
2023-12-07T11:01:43.837Z,2.00
2023-12-07T11:04:46.875Z,0.65
2023-12-07T11:08:08.044Z,0.90
2023-12-07T11:11:21.519Z,1.05
2023-12-07T11:14:24.927Z,0.60
2023-12-07T11:17:28.337Z,1.12
2023-12-07T11:20:49.075Z,1.05
2023-12-07T11:23:51.279Z,1.12
2023-12-07T11:26:55.683Z,1.45
2023-12-07T11:30:01.344Z,1.05
2023-12-07T11:33:08.078Z,1.57
2023-12-07T11:36:11.710Z,2.05
2023-12-07T11:39:26.267Z,1.52
2023-12-07T11:42:31.721Z,0.98
2023-12-07T11:45:49.892Z,1.58
2023-12-07T11:48:53.287Z,2.00
2023-12-07T11:51:55.892Z,1.50
2023-12-07T11:54:58.106Z,2.33
2023-12-07T11:58:00.589Z,0.98
2023-12-07T12:01:04.077Z,2.12
2023-12-07T12:04:07.020Z,2.17
2023-12-07T12:07:09.519Z,2.42
2023-12-07T12:10:14.168Z,1.45
2023-12-07T12:13:17.097Z,1.37
2023-12-07T12:16:19.765Z,1.10
2023-12-07T12:19:31.318Z,2.62
2023-12-07T12:22:37.893Z,1.52
2023-12-07T12:25:41.119Z,1.05
2023-12-07T12:28:45.433Z,1.65
2023-12-07T12:31:48.007Z,3.35
2023-12-07T12:34:54.142Z,1.60
2023-12-07T12:37:56.775Z,1.83
2023-12-07T12:40:59.433Z,2.40
2023-12-07T12:44:01.868Z,1.48
2023-12-07T12:47:11.107Z,3.12
2023-12-07T12:50:34.706Z,3.75
2023-12-07T12:53:42.033Z,2.42
2023-12-07T12:56:45.151Z,1.85
2023-12-07T12:59:49.280Z,1.48
2023-12-07T13:02:51.591Z,3.53
2023-12-07T13:05:54.692Z,3.53
2023-12-07T13:08:57.271Z,2.72
2023-12-07T13:12:03.241Z,2.28
2023-12-07T13:15:08.359Z,2.95
2023-12-07T13:18:10.912Z,1.48
2023-12-07T13:21:14.129Z,2.15
2023-12-07T13:24:16.665Z,3.03
2023-12-07T13:27:19.048Z,1.95
2023-12-07T13:30:21.487Z,1.73
2023-12-07T13:33:27.944Z,1.10
2023-12-07T13:36:34.849Z,3.08
2023-12-07T13:39:37.718Z,3.47
2023-12-07T13:42:40.632Z,1.77
2023-12-07T13:45:43.675Z,2.50
2023-12-07T13:48:46.278Z,2.35
2023-12-07T13:51:48.473Z,3.17
2023-12-07T13:54:54.127Z,2.15
2023-12-07T13:57:58.528Z,3.10
2023-12-07T14:01:02.464Z,3.05
2023-12-07T14:04:07.642Z,1.70
2023-12-07T14:07:13.143Z,2.43
2023-12-07T14:10:16.543Z,1.85
2023-12-07T14:13:19.307Z,3.83
2023-12-07T14:16:31.497Z,2.85
2023-12-07T14:19:45.413Z,3.42
2023-12-07T14:22:48.214Z,2.33
2023-12-07T14:25:52.487Z,2.03
2023-12-07T14:28:55.321Z,2.95
2023-12-07T14:31:57.638Z,4.03
2023-12-07T14:35:00.754Z,2.67
2023-12-07T14:38:03.340Z,2.40
2023-12-07T14:41:06.175Z,3.17
2023-12-07T14:44:08.361Z,3.72
2023-12-07T14:47:11.939Z,3.55
2023-12-07T14:50:14.062Z,4.22
2023-12-07T14:53:16.524Z,2.58
2023-12-07T14:56:18.688Z,1.37
2023-12-07T14:59:21.790Z,3.17
2023-12-07T15:02:24.090Z,2.90
2023-12-07T15:05:44.372Z,3.03
2023-12-07T15:08:47.228Z,4.43
2023-12-07T15:11:49.755Z,3.05
2023-12-07T15:14:52.407Z,5.62
2023-12-07T15:17:56.769Z,2.35
2023-12-07T15:21:00.009Z,3.80
2023-12-07T15:24:02.583Z,3.53
2023-12-07T15:27:06.116Z,3.03
2023-12-07T15:30:11.201Z,2.42
2023-12-07T15:33:13.625Z,2.53
2023-12-07T15:36:16.191Z,3.62
2023-12-07T15:39:18.479Z,2.80
2023-12-07T15:42:20.972Z,4.18
2023-12-07T15:45:23.187Z,3.58
2023-12-07T15:48:26.105Z,4.60
2023-12-07T15:51:28.380Z,4.85
2023-12-07T15:54:37.746Z,5.60
2023-12-07T15:57:42.851Z,3.17
2023-12-07T16:00:46.010Z,3.00
2023-12-07T16:03:48.580Z,2.78
2023-12-07T16:06:50.841Z,1.55
2023-12-07T16:09:55.059Z,2.92
2023-12-07T16:12:57.953Z,3.60
2023-12-07T16:16:00.425Z,2.62
2023-12-07T16:19:02.768Z,3.20
2023-12-07T16:22:06.885Z,2.87
2023-12-07T16:25:09.315Z,3.65
2023-12-07T16:28:11.776Z,3.80
